Time;durP1;ratioP1;P1;durP2;ratioP2;P2;SDS_P1;SDS_P2;PMS_P1;PMS_P2;Temp;Humidity;BMP_temperature;BMP_pressure;BME280_temperature;BME280_humidity;BME280_pressure;Samples;Min_cycle;Max_cycle;Signal;HPM_P1;HPM_P2
2023/03/03 07:01:37;;;;;;;26.50;17.38;;;;;;;-145.79;71.89;79821.94;5301769;27;20850;-74
2023/03/03 07:04:27;;;;;;;24.45;17.15;;;;;;;-145.79;71.86;79813.47;5300694;28;20040;-74
2023/03/03 07:07:25;;;;;;;24.67;15.70;;;;;;;-145.79;71.91;79798.63;5300076;28;20028;-74
2023/03/03 07:09:56;;;;;;;24.65;16.20;;;;;;;-145.79;71.16;79796.50;5298319;28;20381;-74
2023/03/03 07:12:30;;;;;;;23.70;15.80;;;;;;;-145.79;71.30;79790.13;5287187;28;20028;-75
2023/03/03 07:15:23;;;;;;;26.52;17.90;;;;;;;-145.79;71.36;79785.91;5279811;28;20484;-73
2023/03/03 07:17:58;;;;;;;25.98;16.45;;;;;;;-145.79;70.65;79781.66;5294696;28;20073;-74
2023/03/03 07:20:37;;;;;;;;;;;;;;;-145.79;70.63;79764.69;5300695;28;20021;-74
2023/03/03 07:23:22;;;;;;;22.80;15.57;;;;;;;-145.79;70.64;79781.66;5301254;28;19912;-73
2023/03/03 07:25:56;;;;;;;24.42;16.77;;;;;;;-145.79;70.78;79777.41;5299767;28;20028;-75
2023/03/03 07:28:31;;;;;;;25.38;16.45;;;;;;;-145.79;70.36;79777.41;5296234;28;20472;-75
2023/03/03 07:31:35;;;;;;;21.60;15.50;;;;;;;-145.79;70.49;79788.03;5293518;28;20039;-75
2023/03/03 07:34:29;;;;;;;25.42;17.33;;;;;;;-145.79;70.75;79764.69;5299049;28;20054;-75
2023/03/03 07:37:08;;;;;;;24.50;17.48;;;;;;;-145.79;70.14;79762.56;5300647;28;20099;-73
2023/03/03 07:39:43;;;;;;;27.35;18.33;;;;;;;-145.79;70.16;79775.28;5299993;28;20032;-75
2023/03/03 07:42:27;;;;;;;18.90;13.25;;;;;;;-145.79;70.06;79751.97;5299790;28;20154;-75
2023/03/03 07:44:59;;;;;;;26.27;17.48;;;;;;;-145.79;69.87;79777.41;5298903;28;20033;-74
2023/03/03 07:47:35;;;;;;;27.30;17.38;;;;;;;-145.79;70.37;79760.44;5299508;28;20025;-74
2023/03/03 07:50:15;;;;;;;;;;;;;;;-145.79;70.04;79739.25;5300710;28;20024;-74
2023/03/03 07:53:14;;;;;;;27.92;17.77;;;;;;;-145.79;70.14;79743.47;5299094;28;19916;-74
2023/03/03 07:55:45;;;;;;;27.35;18.38;;;;;;;-145.79;69.96;79762.56;5298658;28;20040;-74
2023/03/03 07:58:23;;;;;;;25.20;17.08;;;;;;;-145.79;69.80;79747.72;5300410;28;20506;-75
2023/03/03 08:01:32;;;;;;;27.88;17.38;;;;;;;-145.79;70.12;79751.97;5299011;28;20044;-75
2023/03/03 08:04:46;;;;;;;28.55;17.20;;;;;;;-145.79;69.96;79743.47;5298642;28;20036;-75
2023/03/03 08:07:19;;;;;;;28.33;18.95;;;;;;;-145.79;69.71;79754.09;5299112;28;20034;-74
2023/03/03 08:09:59;;;;;;;23.40;16.98;;;;;;;-145.79;70.12;79751.97;5299637;28;20507;-75
2023/03/03 08:12:40;;;;;;;25.65;17.60;;;;;;;-145.79;70.49;79766.81;5286955;28;20056;-74
2023/03/03 08:15:30;;;;;;;31.00;18.98;;;;;;;-145.79;71.03;79737.13;5284133;28;20498;-65
2023/03/03 08:18:12;;;;;;;54.92;16.83;;;;;;;-145.79;75.36;79679.84;5275983;28;20029;-65
2023/03/03 08:20:46;;;;;;;273.33;40.83;;;;;;;-145.79;75.76;79673.50;5279960;28;20111;-68
2023/03/03 08:23:19;;;;;;;25.90;15.77;;;;;;;-145.79;70.55;79701.06;5284092;28;20506;-67
2023/03/03 08:25:51;;;;;;;27.67;17.27;;;;;;;-145.79;68.96;79705.31;5285010;28;20028;-66
2023/03/03 08:28:23;;;;;;;24.23;17.27;;;;;;;-145.79;68.22;79718.03;5285115;28;20376;-67
2023/03/03 08:30:54;;;;;;;21.63;15.00;;;;;;;-145.79;67.57;79739.25;5285015;28;20032;-67
2023/03/03 08:33:26;;;;;;;25.42;15.70;;;;;;;-145.79;67.63;79747.72;5285148;28;20155;-66
2023/03/03 08:35:57;;;;;;;24.75;15.77;;;;;;;-145.79;67.68;79739.25;5283848;28;20056;-67
2023/03/03 08:38:28;;;;;;;19.73;13.52;;;;;;;-145.79;67.39;79747.72;5284586;28;20027;-67
2023/03/03 08:41:00;;;;;;;21.73;14.45;;;;;;;-145.79;67.26;79728.63;5284077;28;20387;-66
2023/03/03 08:43:31;;;;;;;25.42;15.10;;;;;;;-145.79;66.45;79747.72;5283438;28;20047;-67
2023/03/03 08:46:04;;;;;;;32.08;22.48;;;;;;;-145.79;66.23;79745.59;5285109;28;20021;-66
2023/03/03 08:48:36;;;;;;;28.90;16.55;;;;;;;-145.79;66.11;79747.72;5272893;28;20110;-66
2023/03/03 08:51:08;;;;;;;24.48;14.75;;;;;;;-145.79;67.32;79751.97;5283761;28;20025;-65
2023/03/03 08:53:39;;;;;;;20.60;14.75;;;;;;;-145.79;66.71;79751.97;5278786;28;20044;-66
2023/03/03 08:56:10;;;;;;;23.25;15.52;;;;;;;-145.79;66.70;79743.47;5264297;28;20021;-65
2023/03/03 08:58:46;;;;;;;26.85;17.90;;;;;;;-145.79;67.43;79741.38;5268369;28;20035;-66
2023/03/03 09:01:18;;;;;;;24.80;17.15;;;;;;;-145.79;68.09;79739.25;5283190;28;20395;-65
2023/03/03 09:03:49;;;;;;;31.20;18.08;;;;;;;-145.79;68.30;79730.75;5284355;28;20029;-65
2023/03/03 09:06:20;;;;;;;24.67;16.95;;;;;;;-145.79;68.25;79743.47;5283018;28;20021;-65
2023/03/03 09:08:53;;;;;;;22.85;16.80;;;;;;;-145.79;68.31;79724.41;5263735;28;20044;-65
2023/03/03 09:11:27;;;;;;;27.17;18.00;;;;;;;-145.79;68.17;79715.91;5274449;28;20039;-66
2023/03/03 09:14:12;;;;;;;24.45;16.20;;;;;;;-145.79;67.93;79713.78;5284277;28;20036;-65
2023/03/03 09:16:53;;;;;;;23.77;15.98;;;;;;;-145.79;67.89;79711.66;5283626;28;20383;-65
2023/03/03 09:19:25;;;;;;;27.05;15.68;;;;;;;-145.79;67.50;79707.44;5283855;28;20054;-66
2023/03/03 09:22:01;;;;;;;23.20;14.77;;;;;;;-145.79;66.85;79709.53;5283686;28;20028;-66
2023/03/03 09:24:35;;;;;;;24.35;16.00;;;;;;;-145.79;66.72;79724.41;5283424;28;20036;-65
2023/03/03 09:27:17;;;;;;;27.52;16.95;;;;;;;-145.79;67.03;79705.31;5282528;28;20017;-66
2023/03/03 09:29:48;;;;;;;22.38;15.77;;;;;;;-145.79;66.31;79696.81;5284687;28;20035;-64
2023/03/03 09:32:38;;;;;;;22.45;15.18;;;;;;;-145.79;66.44;79692.56;5283234;28;20028;-64
2023/03/03 09:35:39;;;;;;;19.65;14.50;;;;;;;-145.79;65.96;79692.56;5284133;28;20048;-68
2023/03/03 09:38:25;;;;;;;20.02;13.13;;;;;;;-145.79;65.52;79692.56;5282833;28;20036;-65
2023/03/03 09:41:07;;;;;;;20.35;14.13;;;;;;;-145.79;65.54;79692.56;5282478;28;20374;-64
2023/03/03 09:44:05;;;;;;;20.63;13.57;;;;;;;-145.79;65.42;79675.63;5283690;28;20024;-65
2023/03/03 09:46:54;;;;;;;20.67;13.20;;;;;;;-145.79;65.21;79688.34;5254582;28;20028;-64
2023/03/03 09:49:34;;;;;;;23.02;15.30;;;;;;;-145.79;65.18;79690.47;5282696;28;20036;-63
2023/03/03 09:52:26;;;;;;;21.80;14.98;;;;;;;-145.79;64.71;79675.63;5283557;28;20029;-64
2023/03/03 09:55:13;;;;;;;17.15;12.75;;;;;;;-145.79;64.74;79694.69;5283081;28;20054;-64
2023/03/03 09:58:03;;;;;;;21.92;15.60;;;;;;;-145.79;64.52;79698.94;5283251;28;20067;-64
2023/03/03 10:00:49;;;;;;;18.40;13.27;;;;;;;-145.79;64.30;79692.56;5283060;28;20117;-64
2023/03/03 10:03:29;;;;;;;15.88;11.18;;;;;;;-145.79;63.78;79694.69;5282657;28;20028;-64
2023/03/03 10:06:19;;;;;;;18.38;12.52;;;;;;;-145.79;63.62;79684.09;5283453;28;20029;-63
2023/03/03 10:09:27;;;;;;;16.67;11.95;;;;;;;-145.79;63.92;79660.75;5281536;28;20472;-63
2023/03/03 10:12:07;;;;;;;17.85;11.60;;;;;;;-145.79;63.93;79658.66;5283327;28;20531;-64
2023/03/03 10:14:39;;;;;;;17.55;11.85;;;;;;;-145.79;63.79;79656.53;5282070;28;20078;-64
2023/03/03 10:17:37;;;;;;;16.90;11.02;;;;;;;-145.79;63.52;79654.41;5280611;28;20557;-64
2023/03/03 10:20:30;;;;;;;16.15;11.65;;;;;;;-145.79;63.68;79633.19;5279644;28;20476;-64
2023/03/03 10:23:04;;;;;;;15.07;10.25;;;;;;;-145.79;62.87;79633.19;5263753;28;20021;-66
2023/03/03 10:25:55;;;;;;;15.25;11.60;;;;;;;-145.79;63.31;79652.28;5283010;28;20028;-64
2023/03/03 10:28:52;;;;;;;14.38;10.60;;;;;;;-145.79;62.65;79650.16;5282125;28;20368;-65
2023/03/03 10:31:43;;;;;;;17.20;10.45;;;;;;;-145.79;63.21;79652.28;5262545;28;20033;-65
2023/03/03 10:34:23;;;;;;;14.15;10.13;;;;;;;-145.79;63.27;79658.66;5261650;28;20025;-65
2023/03/03 10:37:09;;;;;;;17.85;10.38;;;;;;;-145.79;62.75;79639.56;5261963;28;20021;-65
2023/03/03 10:39:59;;;;;;;17.60;10.43;;;;;;;-145.79;62.75;79620.47;5262154;28;20096;-65
2023/03/03 10:43:01;;;;;;;14.35;10.35;;;;;;;-145.79;63.27;79628.97;5267419;28;20518;-65
2023/03/03 10:45:47;;;;;;;23.27;17.05;;;;;;;-145.79;62.72;79626.84;5273271;28;20115;-65
2023/03/03 10:48:27;;;;;;;16.38;11.65;;;;;;;-145.79;62.16;79612.00;5282419;28;20032;-65
2023/03/03 10:51:16;;;;;;;15.63;10.10;;;;;;;-145.79;62.45;79624.72;5277962;28;20025;-64
2023/03/03 10:54:09;;;;;;;12.73;9.32;;;;;;;-145.79;61.91;79586.53;5277629;28;20024;-65
2023/03/03 10:56:46;;;;;;;13.88;9.45;;;;;;;-145.79;62.38;79580.19;5282308;28;20025;-65
2023/03/03 10:59:37;;;;;;;15.25;10.43;;;;;;;-145.79;61.85;79544.13;5282536;28;20108;-65
2023/03/03 11:02:21;;;;;;;14.60;9.85;;;;;;;-145.79;60.96;79550.47;5282187;28;20041;-65
2023/03/03 11:05:01;;;;;;;14.80;10.73;;;;;;;-145.79;60.63;79527.16;5280453;28;20067;-65
2023/03/03 11:07:43;;;;;;;15.75;10.93;;;;;;;-145.79;61.10;79522.91;5281819;28;20052;-66
2023/03/03 11:10:29;;;;;;;16.90;10.05;;;;;;;-145.79;60.73;79505.94;5281513;28;20375;-65
2023/03/03 11:13:09;;;;;;;12.02;8.73;;;;;;;-145.79;60.73;79493.22;5280988;28;20036;-65
2023/03/03 11:16:00;;;;;;;28.80;18.52;;;;;;;-145.79;60.01;79480.50;5282622;28;20051;-64
2023/03/03 11:19:04;;;;;;;19.42;14.27;;;;;;;-145.79;60.08;79469.91;5281080;28;20123;-65
2023/03/03 11:22:06;;;;;;;15.77;10.50;;;;;;;-145.79;59.87;79472.03;5282801;28;20460;-65
2023/03/03 11:25:05;;;;;;;15.70;10.68;;;;;;;-145.79;59.75;79484.75;5280995;28;20044;-65
2023/03/03 11:27:59;;;;;;;17.05;11.43;;;;;;;-145.79;59.74;79495.34;5280213;28;20337;-65
2023/03/03 11:30:42;;;;;;;19.02;10.98;;;;;;;-145.79;60.40;79482.63;5281679;28;20472;-66
2023/03/03 11:33:28;;;;;;;17.08;12.05;;;;;;;-145.79;59.82;79486.88;5277655;28;20524;-65
2023/03/03 11:36:24;;;;;;;15.43;11.05;;;;;;;-145.79;60.07;79484.75;5281818;28;20078;-64
2023/03/03 11:38:59;;;;;;;20.10;15.25;;;;;;;-145.79;59.90;79488.97;5259996;28;20025;-65
2023/03/03 11:41:41;;;;;;;18.30;12.73;;;;;;;-145.79;60.25;79493.22;5278227;28;20112;-65
2023/03/03 11:44:34;;;;;;;17.50;11.23;;;;;;;-145.79;60.49;79495.34;5274277;28;20032;-65
2023/03/03 11:47:24;;;;;;;15.57;10.93;;;;;;;-145.79;60.29;79497.47;5264403;28;20048;-65
2023/03/03 11:50:02;;;;;;;17.10;11.77;;;;;;;-145.79;60.04;79478.38;5285676;28;20063;-65
2023/03/03 11:52:52;;;;;;;15.77;12.90;;;;;;;-145.79;60.08;79455.06;5285713;28;20344;-65
2023/03/03 11:55:32;;;;;;;11.90;10.57;;;;;;;-145.79;59.48;79421.13;5285698;28;20032;-66
2023/03/03 11:58:10;;;;;;;26.58;18.08;;;;;;;-145.79;58.92;79425.34;5285674;28;20020;-66
2023/03/03 12:00:57;;;;;;;23.30;18.65;;;;;;;-145.79;58.85;79423.25;5280127;28;20115;-65
2023/03/03 12:04:00;;;;;;;14.73;11.00;;;;;;;-145.79;58.55;79423.25;5286845;28;20464;-64
2023/03/03 12:06:56;;;;;;;14.88;10.38;;;;;;;-145.79;59.03;79433.84;5290937;28;20047;-64
2023/03/03 12:09:59;;;;;;;14.40;10.50;;;;;;;-145.79;59.09;79412.63;5285690;28;20035;-65
2023/03/03 12:12:53;;;;;;;17.42;11.30;;;;;;;-145.79;58.43;79406.28;5285029;28;20079;-64
2023/03/03 12:15:29;;;;;;;13.57;10.15;;;;;;;-145.79;58.34;79389.31;5277609;28;20120;-65
2023/03/03 12:18:17;;;;;;;13.45;10.40;;;;;;;-145.79;57.87;79368.09;5285429;28;20036;-66
2023/03/03 12:21:13;;;;;;;16.30;10.75;;;;;;;-145.79;57.62;79336.28;5285523;28;20400;-64
2023/03/03 12:24:12;;;;;;;19.55;11.32;;;;;;;-145.79;57.73;79300.25;5284432;28;20024;-64
2023/03/03 12:27:07;;;;;;;15.30;10.85;;;;;;;-145.79;56.74;79272.66;5284864;28;20119;-65
2023/03/03 12:29:50;;;;;;;12.68;9.60;;;;;;;-145.79;56.32;79302.38;5283958;28;20037;-65
2023/03/03 12:32:52;;;;;;;30.38;19.77;;;;;;;-145.79;56.75;79302.38;5285009;28;20107;-65
2023/03/03 12:35:35;;;;;;;59.63;41.50;;;;;;;-145.79;56.45;79327.81;5283559;28;20426;-66
2023/03/03 12:38:33;;;;;;;14.13;8.95;;;;;;;-145.79;58.14;79319.31;5268890;28;20030;-65
2023/03/03 12:41:28;;;;;;;11.32;8.95;;;;;;;-145.79;56.95;79334.16;5279887;28;20049;-64
2023/03/03 12:44:25;;;;;;;12.23;9.38;;;;;;;-145.79;57.17;79340.53;5269249;28;20043;-65
2023/03/03 12:47:03;;;;;;;13.40;9.32;;;;;;;-145.79;57.55;79310.84;5282679;28;20380;-64
2023/03/03 12:49:50;;;;;;;12.35;9.88;;;;;;;-145.79;56.90;79268.44;5263002;28;20032;-64
2023/03/03 12:52:52;;;;;;;13.52;9.15;;;;;;;-145.79;57.55;79234.50;5266381;28;20040;-64
2023/03/03 12:55:43;;;;;;;10.15;8.02;;;;;;;-145.79;55.75;79228.13;5284276;28;20056;-65
2023/03/03 12:58:35;;;;;;;11.18;8.88;;;;;;;-145.79;55.67;79236.63;5283834;28;20119;-64
2023/03/03 13:01:29;;;;;;;13.93;9.70;;;;;;;-145.79;55.91;79251.47;5283675;28;20041;-65
2023/03/03 13:04:19;;;;;;;11.30;8.52;;;;;;;-145.79;56.05;79238.75;5283708;28;20376;-66
2023/03/03 13:07:04;;;;;;;11.07;8.90;;;;;;;-145.79;55.88;79209.06;5278667;28;20033;-65
2023/03/03 13:10:01;;;;;;;10.65;8.20;;;;;;;-145.79;55.15;79168.75;5269843;28;20029;-66
2023/03/03 13:12:44;;;;;;;12.27;7.80;;;;;;;-145.79;54.06;79158.16;5274695;28;20036;-65
2023/03/03 13:16:01;;;;;;;8.45;7.50;;;;;;;-145.79;53.90;79124.22;5283804;28;20055;-64
2023/03/03 13:18:52;;;;;;;14.05;9.10;;;;;;;-145.79;53.48;79132.72;5218684;28;20029;-65
2023/03/03 13:21:36;;;;;;;8.77;6.90;;;;;;;-145.79;53.00;79107.25;5283615;28;20534;-64
2023/03/03 13:24:37;;;;;;;9.48;7.20;;;;;;;-145.79;52.34;79096.66;5273424;28;20028;-65
2023/03/03 13:27:13;;;;;;;10.02;7.68;;;;;;;-145.79;52.38;79079.69;5282509;28;20031;-64
2023/03/03 13:30:29;;;;;;;10.32;7.50;;;;;;;-145.79;51.33;79047.91;5283644;28;20028;-64
2023/03/03 13:33:26;;;;;;;11.23;8.65;;;;;;;-145.79;51.76;79052.13;5218241;28;20385;-63
2023/03/03 13:36:13;;;;;;;10.85;7.57;;;;;;;-145.79;52.03;79043.66;5218961;28;20105;-68
2023/03/03 13:38:50;;;;;;;11.20;6.95;;;;;;;-145.79;52.54;79058.50;5256722;28;20048;-66
2023/03/03 13:41:37;;;;;;;9.90;7.88;;;;;;;-145.79;54.38;79039.41;5278069;28;20032;-66
2023/03/03 13:44:30;;;;;;;7.93;6.78;;;;;;;-145.79;53.27;79018.19;5279168;28;20434;-66
2023/03/03 13:47:26;;;;;;;14.38;10.05;;;;;;;-145.79;52.90;78986.41;5279944;28;20198;-67
2023/03/03 13:50:03;;;;;;;9.38;6.97;;;;;;;-145.79;50.97;78992.75;5276634;28;20107;-68
2023/03/03 13:52:47;;;;;;;9.50;6.68;;;;;;;-145.79;51.94;78960.94;5282308;28;20468;-67
2023/03/03 13:55:21;;;;;;;12.18;7.72;;;;;;;-145.79;51.93;78933.38;5283333;28;20033;-67
2023/03/03 13:57:58;;;;;;;31.65;22.77;;;;;;;-145.79;50.55;78933.38;5283169;28;20040;-67
2023/03/03 14:00:47;;;;;;;9.32;6.18;;;;;;;-145.79;49.93;78916.41;5281274;28;20122;-67
2023/03/03 14:03:37;;;;;;;11.63;6.57;;;;;;;-145.79;51.27;78903.69;5282178;28;20032;-67
2023/03/03 14:06:28;;;;;;;17.45;13.60;;;;;;;-145.79;51.27;78922.78;5282760;28;20032;-67
2023/03/03 14:09:10;;;;;;;8.65;6.80;;;;;;;-145.79;50.23;78954.59;5282270;28;20457;-67
2023/03/03 14:11:50;;;;;;;44.75;29.80;;;;;;;-145.79;51.64;78963.06;5281494;28;20108;-68
2023/03/03 14:14:49;;;;;;;8.93;6.53;;;;;;;-145.79;50.92;78975.78;5282087;28;20051;-67
2023/03/03 14:17:26;;;;;;;8.13;6.53;;;;;;;-145.79;53.65;78971.56;5281732;28;20039;-68
2023/03/03 14:20:15;;;;;;;12.15;7.10;;;;;;;-145.79;50.33;78971.56;5279731;28;20032;-68
2023/03/03 14:22:53;;;;;;;9.30;5.88;;;;;;;-145.79;51.44;78927.03;5281311;28;20037;-67
2023/03/03 14:25:25;;;;;;;9.52;5.45;;;;;;;-145.79;49.69;78929.16;5283562;28;20024;-68
2023/03/03 14:28:08;;;;;;;8.57;5.55;;;;;;;-145.79;49.64;78916.41;5281377;28;20028;-68
2023/03/03 14:30:42;;;;;;;8.90;5.70;;;;;;;-145.79;48.74;78924.91;5282658;28;20483;-67
2023/03/03 14:33:13;;;;;;;7.35;5.20;;;;;;;-145.79;49.29;78937.63;5277726;28;20566;-67
2023/03/03 14:36:02;;;;;;;10.00;6.50;;;;;;;-145.79;49.90;78927.03;5261130;28;20112;-67
2023/03/03 14:38:33;;;;;;;11.05;8.52;;;;;;;-145.79;49.36;78946.09;5265598;28;20089;-68
2023/03/03 14:41:10;;;;;;;9.23;6.22;;;;;;;-145.79;49.52;78937.63;5282112;28;20406;-69
2023/03/03 14:44:02;;;;;;;12.70;8.02;;;;;;;-145.79;49.25;78958.84;5282104;28;20082;-68
2023/03/03 14:46:36;;;;;;;9.15;7.30;;;;;;;-145.79;50.28;78948.22;5263781;28;20027;-68
2023/03/03 14:49:33;;;;;;;7.20;5.28;;;;;;;-145.79;50.67;78933.38;5281012;28;20036;-67
2023/03/03 14:52:13;;;;;;;5.80;5.05;;;;;;;-145.79;50.24;78958.84;5264172;28;20090;-66
2023/03/03 14:54:48;;;;;;;7.93;5.53;;;;;;;-145.79;50.44;78956.72;5261746;28;20033;-66
2023/03/03 14:57:34;;;;;;;8.40;4.75;;;;;;;-145.79;49.26;78960.94;5272225;28;20051;-68
2023/03/03 15:00:12;;;;;;;6.80;4.72;;;;;;;-145.79;49.04;78997.00;5261118;28;20136;-66
2023/03/03 15:03:15;;;;;;;6.70;4.72;;;;;;;-145.79;50.72;78984.28;5260999;28;20021;-66
2023/03/03 15:05:53;;;;;;;6.72;5.15;;;;;;;-145.79;51.60;78975.78;5279920;28;20103;-66
2023/03/03 15:08:34;;;;;;;8.25;3.97;;;;;;;-145.79;50.34;78980.03;5267167;28;20036;-67
2023/03/03 15:11:19;;;;;;;7.55;4.13;;;;;;;-145.79;50.95;78971.56;5268815;28;20021;-66
2023/03/03 15:13:50;;;;;;;5.22;4.45;;;;;;;-145.79;52.18;78958.84;5282280;28;20035;-66
2023/03/03 15:16:30;;;;;;;6.30;4.40;;;;;;;-145.79;51.13;78950.34;5280554;28;20024;-66
2023/03/03 15:19:07;;;;;;;5.30;4.30;;;;;;;-145.79;49.29;78971.56;5261118;28;20449;-68
2023/03/03 15:21:47;;;;;;;9.32;5.57;;;;;;;-145.79;49.13;78954.59;5262589;28;20025;-67
2023/03/03 15:24:25;;;;;;;6.18;4.38;;;;;;;-145.79;50.39;78937.63;5265760;28;20032;-66
2023/03/03 15:27:04;;;;;;;8.55;5.05;;;;;;;-145.79;51.91;78954.59;5277308;28;20102;-66
2023/03/03 15:29:44;;;;;;;7.30;4.47;;;;;;;-145.79;50.39;78954.59;5280480;28;20020;-66
2023/03/03 15:32:31;;;;;;;10.85;7.10;;;;;;;-145.79;50.97;78948.22;5285280;28;20025;-68
2023/03/03 15:35:03;;;;;;;6.78;4.60;;;;;;;-145.79;48.74;78984.28;5286293;28;20032;-65
2023/03/03 15:37:51;;;;;;;19.48;15.45;;;;;;;-145.79;48.97;78982.16;5285004;28;20032;-67
2023/03/03 15:40:45;;;;;;;39.53;28.52;;;;;;;-145.79;49.59;78977.91;5285771;28;20028;-66
2023/03/03 15:43:39;;;;;;;6.95;4.68;;;;;;;-145.79;48.99;78980.03;5275096;28;20395;-67
2023/03/03 15:46:24;;;;;;;6.38;4.43;;;;;;;-145.79;48.83;78986.41;5285145;28;20031;-67
2023/03/03 15:49:33;;;;;;;8.75;4.75;;;;;;;-145.79;49.04;78971.56;5284236;28;20047;-66
2023/03/03 15:52:21;;;;;;;10.25;7.60;;;;;;;-145.79;49.79;78963.06;5275903;28;20383;-68
2023/03/03 15:55:11;;;;;;;5.75;5.10;;;;;;;-145.79;49.68;78952.47;5286114;28;20036;-66
2023/03/03 15:58:03;;;;;;;7.20;4.55;;;;;;;-145.79;49.33;78933.38;5265083;28;20447;-67
2023/03/03 16:01:19;;;;;;;6.53;4.68;;;;;;;-145.79;49.92;78931.25;5264086;28;20056;-67
2023/03/03 16:03:56;;;;;;;6.38;5.00;;;;;;;-145.79;48.57;78944.00;5271553;28;20437;-68
2023/03/03 16:06:47;;;;;;;8.68;5.03;;;;;;;-145.79;50.68;78924.91;5284041;28;20123;-67
2023/03/03 16:09:30;;;;;;;16.70;10.40;;;;;;;-145.79;49.57;78963.06;5285550;28;20361;-67
2023/03/03 16:12:25;;;;;;;9.82;5.13;;;;;;;-145.79;50.47;78946.09;5278199;28;20037;-67
2023/03/03 16:15:32;;;;;;;7.63;4.90;;;;;;;-145.79;50.17;78958.84;5264495;28;20424;-67
2023/03/03 16:18:16;;;;;;;7.75;4.57;;;;;;;-145.79;48.81;78973.69;5282806;28;20479;-67
2023/03/03 16:21:02;;;;;;;5.35;4.30;;;;;;;-145.79;49.32;78967.31;5284284;28;20059;-66
2023/03/03 16:23:38;;;;;;;11.90;4.85;;;;;;;-145.79;49.68;78969.44;5285603;28;20115;-67
2023/03/03 16:26:35;;;;;;;8.88;4.57;;;;;;;-145.79;50.00;78963.06;5285462;28;20016;-65
2023/03/03 16:29:06;;;;;;;;;;;;;;;-145.79;50.56;78956.72;5285156;28;20028;-68
2023/03/03 16:31:45;;;;;;;4.90;3.33;;;;;;;-145.79;50.50;78977.91;5284772;28;19920;-67
